sensor_id;sensor_type;location;lat;lon;timestamp;P1;durP1;ratioP1;P2;durP2;ratioP2
32874;SDS011;40468;42.128;24.750;2022-12-31T00:01:31;79.95;;;35.53;;
32874;SDS011;40468;42.128;24.750;2022-12-31T00:03:03;76.20;;;35.40;;
32874;SDS011;40468;42.128;24.750;2022-12-31T00:04:35;84.55;;;36.75;;
32874;SDS011;40468;42.128;24.750;2022-12-31T00:06:11;78.88;;;36.30;;
32874;SDS011;40468;42.128;24.750;2022-12-31T00:07:46;79.70;;;34.72;;
32874;SDS011;40468;42.128;24.750;2022-12-31T00:09:18;76.28;;;34.97;;
32874;SDS011;40468;42.128;24.750;2022-12-31T00:10:50;84.10;;;35.85;;
32874;SDS011;40468;42.128;24.750;2022-12-31T00:12:21;82.57;;;37.10;;
32874;SDS011;40468;42.128;24.750;2022-12-31T00:13:54;72.45;;;35.00;;
32874;SDS011;40468;42.128;24.750;2022-12-31T00:15:26;77.82;;;34.63;;
32874;SDS011;40468;42.128;24.750;2022-12-31T00:16:58;79.38;;;35.20;;
32874;SDS011;40468;42.128;24.750;2022-12-31T00:18:29;81.60;;;34.75;;
32874;SDS011;40468;42.128;24.750;2022-12-31T00:20:00;71.05;;;32.03;;
32874;SDS011;40468;42.128;24.750;2022-12-31T00:21:32;71.80;;;32.70;;
32874;SDS011;40468;42.128;24.750;2022-12-31T00:23:06;75.30;;;34.85;;
32874;SDS011;40468;42.128;24.750;2022-12-31T00:24:38;74.90;;;33.50;;
32874;SDS011;40468;42.128;24.750;2022-12-31T00:26:11;76.97;;;34.45;;
32874;SDS011;40468;42.128;24.750;2022-12-31T00:27:44;71.85;;;32.38;;
32874;SDS011;40468;42.128;24.750;2022-12-31T00:29:16;71.00;;;34.47;;
32874;SDS011;40468;42.128;24.750;2022-12-31T00:30:47;81.72;;;35.38;;
32874;SDS011;40468;42.128;24.750;2022-12-31T00:32:19;78.20;;;33.65;;
32874;SDS011;40468;42.128;24.750;2022-12-31T00:33:51;74.63;;;33.75;;
32874;SDS011;40468;42.128;24.750;2022-12-31T00:35:23;75.68;;;33.88;;
32874;SDS011;40468;42.128;24.750;2022-12-31T00:36:56;73.20;;;33.30;;
32874;SDS011;40468;42.128;24.750;2022-12-31T00:38:29;70.78;;;33.15;;
32874;SDS011;40468;42.128;24.750;2022-12-31T00:40:01;69.88;;;30.60;;
32874;SDS011;40468;42.128;24.750;2022-12-31T00:41:33;71.03;;;31.60;;
32874;SDS011;40468;42.128;24.750;2022-12-31T00:43:05;75.47;;;32.47;;
32874;SDS011;40468;42.128;24.750;2022-12-31T00:44:37;75.65;;;32.15;;
32874;SDS011;40468;42.128;24.750;2022-12-31T00:46:09;69.15;;;32.85;;
32874;SDS011;40468;42.128;24.750;2022-12-31T00:47:42;70.20;;;32.08;;
32874;SDS011;40468;42.128;24.750;2022-12-31T00:49:13;71.22;;;32.17;;
32874;SDS011;40468;42.128;24.750;2022-12-31T00:50:46;71.13;;;32.92;;
32874;SDS011;40468;42.128;24.750;2022-12-31T00:52:18;70.10;;;32.50;;
32874;SDS011;40468;42.128;24.750;2022-12-31T00:53:51;71.65;;;31.63;;
32874;SDS011;40468;42.128;24.750;2022-12-31T00:55:23;69.38;;;31.77;;
32874;SDS011;40468;42.128;24.750;2022-12-31T00:56:55;63.10;;;30.02;;
32874;SDS011;40468;42.128;24.750;2022-12-31T00:58:27;72.63;;;31.77;;
32874;SDS011;40468;42.128;24.750;2022-12-31T01:00:00;71.05;;;31.33;;
32874;SDS011;40468;42.128;24.750;2022-12-31T01:01:32;72.88;;;32.58;;
32874;SDS011;40468;42.128;24.750;2022-12-31T01:03:05;76.03;;;32.58;;
32874;SDS011;40468;42.128;24.750;2022-12-31T01:04:38;70.80;;;32.50;;
32874;SDS011;40468;42.128;24.750;2022-12-31T01:06:10;70.10;;;33.15;;
32874;SDS011;40468;42.128;24.750;2022-12-31T01:07:42;70.85;;;31.17;;
32874;SDS011;40468;42.128;24.750;2022-12-31T01:09:17;71.03;;;29.85;;
32874;SDS011;40468;42.128;24.750;2022-12-31T01:10:50;69.50;;;31.73;;
32874;SDS011;40468;42.128;24.750;2022-12-31T01:12:39;77.18;;;32.50;;
32874;SDS011;40468;42.128;24.750;2022-12-31T01:14:11;70.05;;;32.25;;
32874;SDS011;40468;42.128;24.750;2022-12-31T01:15:45;76.38;;;32.85;;
32874;SDS011;40468;42.128;24.750;2022-12-31T01:17:16;64.90;;;30.52;;
32874;SDS011;40468;42.128;24.750;2022-12-31T01:18:48;68.57;;;30.23;;
32874;SDS011;40468;42.128;24.750;2022-12-31T01:20:20;71.38;;;31.05;;
32874;SDS011;40468;42.128;24.750;2022-12-31T01:21:51;61.58;;;27.92;;
32874;SDS011;40468;42.128;24.750;2022-12-31T01:23:23;56.67;;;26.88;;
32874;SDS011;40468;42.128;24.750;2022-12-31T01:24:55;61.05;;;27.45;;
32874;SDS011;40468;42.128;24.750;2022-12-31T01:26:27;61.85;;;27.98;;
32874;SDS011;40468;42.128;24.750;2022-12-31T01:27:58;60.33;;;27.08;;
32874;SDS011;40468;42.128;24.750;2022-12-31T01:29:30;60.08;;;26.77;;
32874;SDS011;40468;42.128;24.750;2022-12-31T01:31:03;59.42;;;26.15;;
32874;SDS011;40468;42.128;24.750;2022-12-31T01:32:34;55.05;;;25.33;;
32874;SDS011;40468;42.128;24.750;2022-12-31T01:34:07;64.43;;;25.20;;
32874;SDS011;40468;42.128;24.750;2022-12-31T01:35:39;52.83;;;24.60;;
32874;SDS011;40468;42.128;24.750;2022-12-31T01:37:10;52.95;;;25.75;;
32874;SDS011;40468;42.128;24.750;2022-12-31T01:38:42;54.38;;;24.35;;
32874;SDS011;40468;42.128;24.750;2022-12-31T01:40:16;53.97;;;25.52;;
32874;SDS011;40468;42.128;24.750;2022-12-31T01:43:19;51.33;;;24.23;;
32874;SDS011;40468;42.128;24.750;2022-12-31T01:44:52;52.38;;;24.50;;
32874;SDS011;40468;42.128;24.750;2022-12-31T01:46:26;55.17;;;24.80;;
32874;SDS011;40468;42.128;24.750;2022-12-31T01:48:03;53.83;;;25.77;;
32874;SDS011;40468;42.128;24.750;2022-12-31T01:49:36;52.83;;;24.10;;
32874;SDS011;40468;42.128;24.750;2022-12-31T01:51:12;54.88;;;25.52;;
32874;SDS011;40468;42.128;24.750;2022-12-31T01:52:45;54.38;;;25.92;;
32874;SDS011;40468;42.128;24.750;2022-12-31T01:54:20;56.28;;;24.70;;
32874;SDS011;40468;42.128;24.750;2022-12-31T01:55:56;57.70;;;25.77;;
32874;SDS011;40468;42.128;24.750;2022-12-31T01:57:30;55.80;;;24.90;;
32874;SDS011;40468;42.128;24.750;2022-12-31T01:59:03;59.73;;;26.47;;
32874;SDS011;40468;42.128;24.750;2022-12-31T02:00:38;53.92;;;24.30;;
32874;SDS011;40468;42.128;24.750;2022-12-31T02:02:10;51.88;;;23.85;;
32874;SDS011;40468;42.128;24.750;2022-12-31T02:03:43;43.42;;;21.73;;
32874;SDS011;40468;42.128;24.750;2022-12-31T02:05:17;50.58;;;22.85;;
32874;SDS011;40468;42.128;24.750;2022-12-31T02:07:06;44.63;;;21.80;;
32874;SDS011;40468;42.128;24.750;2022-12-31T02:08:39;40.75;;;20.25;;
32874;SDS011;40468;42.128;24.750;2022-12-31T02:10:11;45.78;;;22.00;;
32874;SDS011;40468;42.128;24.750;2022-12-31T02:11:44;41.80;;;21.45;;
32874;SDS011;40468;42.128;24.750;2022-12-31T02:13:15;46.40;;;20.77;;
32874;SDS011;40468;42.128;24.750;2022-12-31T02:14:48;42.58;;;20.55;;
32874;SDS011;40468;42.128;24.750;2022-12-31T02:16:25;42.25;;;20.50;;
32874;SDS011;40468;42.128;24.750;2022-12-31T02:18:03;42.38;;;20.50;;
32874;SDS011;40468;42.128;24.750;2022-12-31T02:19:50;45.92;;;22.05;;
32874;SDS011;40468;42.128;24.750;2022-12-31T02:21:40;42.10;;;20.42;;
32874;SDS011;40468;42.128;24.750;2022-12-31T02:25:35;41.05;;;19.52;;
32874;SDS011;40468;42.128;24.750;2022-12-31T02:27:23;42.85;;;19.13;;
32874;SDS011;40468;42.128;24.750;2022-12-31T02:29:26;43.47;;;19.52;;
32874;SDS011;40468;42.128;24.750;2022-12-31T02:31:11;45.45;;;20.00;;
32874;SDS011;40468;42.128;24.750;2022-12-31T02:32:49;38.55;;;18.83;;
32874;SDS011;40468;42.128;24.750;2022-12-31T02:34:29;40.65;;;19.40;;
32874;SDS011;40468;42.128;24.750;2022-12-31T02:36:05;41.35;;;19.55;;
32874;SDS011;40468;42.128;24.750;2022-12-31T02:37:42;38.92;;;18.50;;
32874;SDS011;40468;42.128;24.750;2022-12-31T02:39:17;46.65;;;21.15;;
32874;SDS011;40468;42.128;24.750;2022-12-31T02:40:49;46.75;;;19.83;;
32874;SDS011;40468;42.128;24.750;2022-12-31T02:42:23;42.47;;;19.00;;
32874;SDS011;40468;42.128;24.750;2022-12-31T02:43:54;40.85;;;18.83;;
32874;SDS011;40468;42.128;24.750;2022-12-31T02:45:27;44.08;;;20.05;;
32874;SDS011;40468;42.128;24.750;2022-12-31T02:47:08;42.03;;;19.17;;
32874;SDS011;40468;42.128;24.750;2022-12-31T02:48:48;40.60;;;19.88;;
32874;SDS011;40468;42.128;24.750;2022-12-31T02:50:33;41.13;;;18.75;;
32874;SDS011;40468;42.128;24.750;2022-12-31T02:52:26;38.85;;;18.90;;
32874;SDS011;40468;42.128;24.750;2022-12-31T02:55:48;44.13;;;19.17;;
32874;SDS011;40468;42.128;24.750;2022-12-31T02:57:27;42.45;;;20.00;;
32874;SDS011;40468;42.128;24.750;2022-12-31T02:59:09;43.60;;;20.90;;
32874;SDS011;40468;42.128;24.750;2022-12-31T03:02:53;45.88;;;20.17;;
32874;SDS011;40468;42.128;24.750;2022-12-31T03:04:26;42.78;;;19.58;;
32874;SDS011;40468;42.128;24.750;2022-12-31T03:06:02;38.15;;;19.23;;
32874;SDS011;40468;42.128;24.750;2022-12-31T03:07:35;45.33;;;20.25;;
32874;SDS011;40468;42.128;24.750;2022-12-31T03:09:06;45.30;;;20.88;;
32874;SDS011;40468;42.128;24.750;2022-12-31T03:10:43;46.92;;;22.25;;
32874;SDS011;40468;42.128;24.750;2022-12-31T03:12:15;45.88;;;21.30;;
32874;SDS011;40468;42.128;24.750;2022-12-31T03:14:06;48.90;;;21.77;;
32874;SDS011;40468;42.128;24.750;2022-12-31T03:15:37;49.30;;;22.20;;
32874;SDS011;40468;42.128;24.750;2022-12-31T03:17:09;47.67;;;21.30;;
32874;SDS011;40468;42.128;24.750;2022-12-31T03:18:41;44.88;;;20.73;;
32874;SDS011;40468;42.128;24.750;2022-12-31T03:20:29;43.45;;;21.33;;
32874;SDS011;40468;42.128;24.750;2022-12-31T03:22:19;45.33;;;20.92;;
32874;SDS011;40468;42.128;24.750;2022-12-31T03:23:57;47.42;;;21.73;;
32874;SDS011;40468;42.128;24.750;2022-12-31T03:25:47;45.15;;;20.88;;
32874;SDS011;40468;42.128;24.750;2022-12-31T03:27:19;54.97;;;22.55;;
32874;SDS011;40468;42.128;24.750;2022-12-31T03:28:50;48.30;;;22.08;;
32874;SDS011;40468;42.128;24.750;2022-12-31T03:30:22;52.72;;;25.08;;
32874;SDS011;40468;42.128;24.750;2022-12-31T03:31:54;56.38;;;25.13;;
32874;SDS011;40468;42.128;24.750;2022-12-31T03:33:29;51.13;;;23.60;;
32874;SDS011;40468;42.128;24.750;2022-12-31T03:35:04;53.42;;;24.45;;
32874;SDS011;40468;42.128;24.750;2022-12-31T03:36:37;48.70;;;22.45;;
32874;SDS011;40468;42.128;24.750;2022-12-31T03:38:09;46.17;;;21.90;;
32874;SDS011;40468;42.128;24.750;2022-12-31T03:39:42;47.38;;;21.65;;
32874;SDS011;40468;42.128;24.750;2022-12-31T03:41:12;48.28;;;21.52;;
32874;SDS011;40468;42.128;24.750;2022-12-31T03:42:44;54.78;;;22.52;;
32874;SDS011;40468;42.128;24.750;2022-12-31T03:44:16;46.15;;;21.20;;
32874;SDS011;40468;42.128;24.750;2022-12-31T03:45:48;43.78;;;21.25;;
32874;SDS011;40468;42.128;24.750;2022-12-31T03:47:21;49.08;;;22.27;;
32874;SDS011;40468;42.128;24.750;2022-12-31T03:48:52;48.33;;;21.88;;
32874;SDS011;40468;42.128;24.750;2022-12-31T03:50:25;40.97;;;19.70;;
32874;SDS011;40468;42.128;24.750;2022-12-31T03:51:57;42.63;;;21.35;;
32874;SDS011;40468;42.128;24.750;2022-12-31T03:53:28;45.33;;;20.42;;
32874;SDS011;40468;42.128;24.750;2022-12-31T03:55:01;39.87;;;19.43;;
32874;SDS011;40468;42.128;24.750;2022-12-31T03:56:33;45.67;;;20.75;;
32874;SDS011;40468;42.128;24.750;2022-12-31T03:58:05;43.53;;;19.65;;
32874;SDS011;40468;42.128;24.750;2022-12-31T03:59:37;42.13;;;19.70;;
32874;SDS011;40468;42.128;24.750;2022-12-31T04:01:09;43.65;;;19.30;;
32874;SDS011;40468;42.128;24.750;2022-12-31T04:02:41;45.25;;;20.75;;
32874;SDS011;40468;42.128;24.750;2022-12-31T04:04:12;39.15;;;18.92;;
32874;SDS011;40468;42.128;24.750;2022-12-31T04:05:45;43.15;;;18.98;;
32874;SDS011;40468;42.128;24.750;2022-12-31T04:07:23;42.15;;;19.88;;
32874;SDS011;40468;42.128;24.750;2022-12-31T04:08:55;42.65;;;19.55;;
32874;SDS011;40468;42.128;24.750;2022-12-31T04:10:26;39.22;;;19.15;;
32874;SDS011;40468;42.128;24.750;2022-12-31T04:11:58;44.58;;;21.65;;
32874;SDS011;40468;42.128;24.750;2022-12-31T04:13:29;44.20;;;19.75;;
32874;SDS011;40468;42.128;24.750;2022-12-31T04:15:01;43.20;;;20.30;;
32874;SDS011;40468;42.128;24.750;2022-12-31T04:16:33;42.10;;;19.73;;
32874;SDS011;40468;42.128;24.750;2022-12-31T04:18:05;44.05;;;20.17;;
32874;SDS011;40468;42.128;24.750;2022-12-31T04:19:37;43.63;;;19.30;;
32874;SDS011;40468;42.128;24.750;2022-12-31T04:21:10;40.95;;;20.00;;
32874;SDS011;40468;42.128;24.750;2022-12-31T04:22:41;41.47;;;21.13;;
32874;SDS011;40468;42.128;24.750;2022-12-31T04:24:13;42.80;;;20.63;;
32874;SDS011;40468;42.128;24.750;2022-12-31T04:25:44;43.03;;;20.73;;
32874;SDS011;40468;42.128;24.750;2022-12-31T04:27:16;50.45;;;23.27;;
32874;SDS011;40468;42.128;24.750;2022-12-31T04:28:54;49.83;;;21.85;;
32874;SDS011;40468;42.128;24.750;2022-12-31T04:30:25;45.05;;;21.25;;
32874;SDS011;40468;42.128;24.750;2022-12-31T04:31:57;40.33;;;20.63;;
32874;SDS011;40468;42.128;24.750;2022-12-31T04:33:27;42.25;;;20.73;;
32874;SDS011;40468;42.128;24.750;2022-12-31T04:34:59;47.80;;;21.25;;
32874;SDS011;40468;42.128;24.750;2022-12-31T04:36:32;45.90;;;21.73;;
32874;SDS011;40468;42.128;24.750;2022-12-31T04:38:03;44.70;;;20.13;;
32874;SDS011;40468;42.128;24.750;2022-12-31T04:39:35;48.50;;;21.08;;
32874;SDS011;40468;42.128;24.750;2022-12-31T04:41:07;50.47;;;20.75;;
32874;SDS011;40468;42.128;24.750;2022-12-31T04:42:47;46.38;;;21.10;;
32874;SDS011;40468;42.128;24.750;2022-12-31T04:44:19;51.90;;;23.33;;
32874;SDS011;40468;42.128;24.750;2022-12-31T04:45:50;53.85;;;23.10;;
32874;SDS011;40468;42.128;24.750;2022-12-31T04:47:22;42.95;;;21.20;;
32874;SDS011;40468;42.128;24.750;2022-12-31T04:48:54;46.33;;;22.67;;
32874;SDS011;40468;42.128;24.750;2022-12-31T04:50:27;48.70;;;20.80;;
32874;SDS011;40468;42.128;24.750;2022-12-31T04:52:00;48.05;;;21.70;;
32874;SDS011;40468;42.128;24.750;2022-12-31T04:53:32;49.50;;;21.65;;
32874;SDS011;40468;42.128;24.750;2022-12-31T04:55:03;45.08;;;21.75;;
32874;SDS011;40468;42.128;24.750;2022-12-31T04:56:35;53.15;;;21.13;;
32874;SDS011;40468;42.128;24.750;2022-12-31T04:58:07;45.25;;;21.17;;
32874;SDS011;40468;42.128;24.750;2022-12-31T04:59:39;45.35;;;21.67;;
32874;SDS011;40468;42.128;24.750;2022-12-31T05:01:11;46.30;;;21.13;;
32874;SDS011;40468;42.128;24.750;2022-12-31T05:02:43;43.65;;;20.88;;
32874;SDS011;40468;42.128;24.750;2022-12-31T05:04:15;49.20;;;21.05;;
32874;SDS011;40468;42.128;24.750;2022-12-31T05:05:47;46.55;;;21.02;;
32874;SDS011;40468;42.128;24.750;2022-12-31T05:07:20;48.15;;;19.90;;
32874;SDS011;40468;42.128;24.750;2022-12-31T05:08:52;40.38;;;20.02;;
32874;SDS011;40468;42.128;24.750;2022-12-31T05:10:24;42.70;;;21.20;;
32874;SDS011;40468;42.128;24.750;2022-12-31T05:11:56;47.83;;;21.20;;
32874;SDS011;40468;42.128;24.750;2022-12-31T05:13:28;42.05;;;20.58;;
32874;SDS011;40468;42.128;24.750;2022-12-31T05:15:00;52.93;;;21.53;;
32874;SDS011;40468;42.128;24.750;2022-12-31T05:16:32;50.47;;;22.98;;
32874;SDS011;40468;42.128;24.750;2022-12-31T05:18:04;59.75;;;25.60;;
32874;SDS011;40468;42.128;24.750;2022-12-31T05:19:36;53.47;;;24.63;;
32874;SDS011;40468;42.128;24.750;2022-12-31T05:21:08;54.47;;;24.40;;
32874;SDS011;40468;42.128;24.750;2022-12-31T05:22:44;61.78;;;28.17;;
32874;SDS011;40468;42.128;24.750;2022-12-31T05:24:15;52.20;;;25.33;;
32874;SDS011;40468;42.128;24.750;2022-12-31T05:25:46;51.15;;;25.30;;
32874;SDS011;40468;42.128;24.750;2022-12-31T05:27:19;56.40;;;25.77;;
32874;SDS011;40468;42.128;24.750;2022-12-31T05:28:51;55.45;;;25.95;;
32874;SDS011;40468;42.128;24.750;2022-12-31T05:30:24;56.53;;;27.08;;
32874;SDS011;40468;42.128;24.750;2022-12-31T05:31:56;61.25;;;25.77;;
32874;SDS011;40468;42.128;24.750;2022-12-31T05:33:28;55.58;;;25.83;;
32874;SDS011;40468;42.128;24.750;2022-12-31T05:34:59;63.13;;;25.73;;
32874;SDS011;40468;42.128;24.750;2022-12-31T05:36:30;57.58;;;25.15;;
32874;SDS011;40468;42.128;24.750;2022-12-31T05:38:04;56.55;;;24.38;;
32874;SDS011;40468;42.128;24.750;2022-12-31T05:39:35;53.72;;;25.48;;
32874;SDS011;40468;42.128;24.750;2022-12-31T05:41:08;64.93;;;25.83;;
32874;SDS011;40468;42.128;24.750;2022-12-31T05:44:11;55.80;;;24.58;;
32874;SDS011;40468;42.128;24.750;2022-12-31T05:45:43;55.05;;;25.35;;
32874;SDS011;40468;42.128;24.750;2022-12-31T05:47:15;56.17;;;26.35;;
32874;SDS011;40468;42.128;24.750;2022-12-31T05:48:46;56.25;;;27.75;;
32874;SDS011;40468;42.128;24.750;2022-12-31T05:50:18;59.20;;;27.75;;
32874;SDS011;40468;42.128;24.750;2022-12-31T05:51:49;55.38;;;26.42;;
32874;SDS011;40468;42.128;24.750;2022-12-31T05:53:22;56.78;;;26.88;;
32874;SDS011;40468;42.128;24.750;2022-12-31T05:54:53;59.75;;;26.70;;
32874;SDS011;40468;42.128;24.750;2022-12-31T05:56:25;59.72;;;27.52;;
32874;SDS011;40468;42.128;24.750;2022-12-31T05:57:56;61.55;;;27.63;;
32874;SDS011;40468;42.128;24.750;2022-12-31T05:59:28;53.97;;;26.52;;
32874;SDS011;40468;42.128;24.750;2022-12-31T06:00:59;58.72;;;27.42;;
32874;SDS011;40468;42.128;24.750;2022-12-31T06:02:31;55.58;;;26.80;;
32874;SDS011;40468;42.128;24.750;2022-12-31T06:04:02;57.60;;;27.90;;
32874;SDS011;40468;42.128;24.750;2022-12-31T06:05:37;55.03;;;27.27;;
32874;SDS011;40468;42.128;24.750;2022-12-31T06:07:10;60.03;;;27.83;;
32874;SDS011;40468;42.128;24.750;2022-12-31T06:08:42;74.38;;;27.80;;
32874;SDS011;40468;42.128;24.750;2022-12-31T06:10:14;57.35;;;27.52;;
32874;SDS011;40468;42.128;24.750;2022-12-31T06:11:46;58.25;;;26.90;;
32874;SDS011;40468;42.128;24.750;2022-12-31T06:13:17;63.15;;;26.25;;
32874;SDS011;40468;42.128;24.750;2022-12-31T06:14:49;60.20;;;28.02;;
32874;SDS011;40468;42.128;24.750;2022-12-31T06:16:21;64.07;;;27.60;;
32874;SDS011;40468;42.128;24.750;2022-12-31T06:17:53;63.83;;;27.80;;
32874;SDS011;40468;42.128;24.750;2022-12-31T06:19:25;57.33;;;27.58;;
32874;SDS011;40468;42.128;24.750;2022-12-31T06:20:56;63.75;;;28.75;;
32874;SDS011;40468;42.128;24.750;2022-12-31T06:22:28;59.78;;;27.80;;
32874;SDS011;40468;42.128;24.750;2022-12-31T06:24:01;60.25;;;25.17;;
32874;SDS011;40468;42.128;24.750;2022-12-31T06:25:33;59.83;;;25.92;;
32874;SDS011;40468;42.128;24.750;2022-12-31T06:27:06;65.05;;;30.23;;
32874;SDS011;40468;42.128;24.750;2022-12-31T06:28:36;66.05;;;28.98;;
32874;SDS011;40468;42.128;24.750;2022-12-31T06:30:09;55.85;;;26.40;;
32874;SDS011;40468;42.128;24.750;2022-12-31T06:31:41;58.40;;;24.55;;
32874;SDS011;40468;42.128;24.750;2022-12-31T06:33:14;54.55;;;25.83;;
32874;SDS011;40468;42.128;24.750;2022-12-31T06:34:45;53.58;;;25.23;;
32874;SDS011;40468;42.128;24.750;2022-12-31T06:36:17;59.03;;;24.40;;
32874;SDS011;40468;42.128;24.750;2022-12-31T06:37:51;59.83;;;26.50;;
32874;SDS011;40468;42.128;24.750;2022-12-31T06:39:24;53.33;;;25.80;;
32874;SDS011;40468;42.128;24.750;2022-12-31T06:41:01;57.25;;;25.52;;
32874;SDS011;40468;42.128;24.750;2022-12-31T06:42:33;66.75;;;26.58;;
32874;SDS011;40468;42.128;24.750;2022-12-31T06:44:05;57.45;;;26.33;;
32874;SDS011;40468;42.128;24.750;2022-12-31T06:45:36;58.63;;;26.50;;
32874;SDS011;40468;42.128;24.750;2022-12-31T06:47:08;64.97;;;26.95;;
32874;SDS011;40468;42.128;24.750;2022-12-31T06:48:40;60.00;;;27.83;;
32874;SDS011;40468;42.128;24.750;2022-12-31T06:51:45;62.67;;;26.77;;
32874;SDS011;40468;42.128;24.750;2022-12-31T06:53:17;61.60;;;27.85;;
32874;SDS011;40468;42.128;24.750;2022-12-31T06:54:51;60.63;;;27.75;;
32874;SDS011;40468;42.128;24.750;2022-12-31T06:56:23;59.30;;;27.75;;
32874;SDS011;40468;42.128;24.750;2022-12-31T06:57:58;60.33;;;29.15;;
32874;SDS011;40468;42.128;24.750;2022-12-31T06:59:30;60.53;;;27.70;;
32874;SDS011;40468;42.128;24.750;2022-12-31T07:01:04;67.55;;;29.90;;
32874;SDS011;40468;42.128;24.750;2022-12-31T07:02:52;65.95;;;29.80;;
32874;SDS011;40468;42.128;24.750;2022-12-31T07:04:55;57.72;;;28.45;;
32874;SDS011;40468;42.128;24.750;2022-12-31T07:06:40;64.10;;;28.67;;
32874;SDS011;40468;42.128;24.750;2022-12-31T07:08:19;65.00;;;29.10;;
32874;SDS011;40468;42.128;24.750;2022-12-31T07:10:04;61.50;;;29.52;;
32874;SDS011;40468;42.128;24.750;2022-12-31T07:11:45;64.95;;;29.70;;
32874;SDS011;40468;42.128;24.750;2022-12-31T07:13:44;68.72;;;29.63;;
32874;SDS011;40468;42.128;24.750;2022-12-31T07:15:26;63.63;;;29.77;;
32874;SDS011;40468;42.128;24.750;2022-12-31T07:17:18;70.55;;;31.67;;
32874;SDS011;40468;42.128;24.750;2022-12-31T07:19:03;74.13;;;33.75;;
32874;SDS011;40468;42.128;24.750;2022-12-31T07:20:44;73.80;;;33.45;;
32874;SDS011;40468;42.128;24.750;2022-12-31T07:22:16;79.15;;;34.13;;
32874;SDS011;40468;42.128;24.750;2022-12-31T07:23:49;66.80;;;29.70;;
32874;SDS011;40468;42.128;24.750;2022-12-31T07:25:23;69.57;;;32.15;;
32874;SDS011;40468;42.128;24.750;2022-12-31T07:27:00;70.07;;;32.42;;
32874;SDS011;40468;42.128;24.750;2022-12-31T07:28:44;69.75;;;31.13;;
32874;SDS011;40468;42.128;24.750;2022-12-31T07:30:26;68.32;;;32.47;;
32874;SDS011;40468;42.128;24.750;2022-12-31T07:32:08;82.53;;;34.42;;
32874;SDS011;40468;42.128;24.750;2022-12-31T07:33:55;95.20;;;43.97;;
32874;SDS011;40468;42.128;24.750;2022-12-31T07:35:30;110.90;;;47.95;;
32874;SDS011;40468;42.128;24.750;2022-12-31T07:37:13;98.45;;;42.78;;
32874;SDS011;40468;42.128;24.750;2022-12-31T07:38:52;77.53;;;33.58;;
32874;SDS011;40468;42.128;24.750;2022-12-31T07:40:29;76.70;;;33.83;;
32874;SDS011;40468;42.128;24.750;2022-12-31T07:42:10;72.30;;;32.88;;
32874;SDS011;40468;42.128;24.750;2022-12-31T07:43:50;79.78;;;33.58;;
32874;SDS011;40468;42.128;24.750;2022-12-31T07:45:33;73.03;;;33.83;;
32874;SDS011;40468;42.128;24.750;2022-12-31T07:47:13;75.32;;;33.78;;
32874;SDS011;40468;42.128;24.750;2022-12-31T07:48:51;77.10;;;35.45;;
32874;SDS011;40468;42.128;24.750;2022-12-31T07:50:24;86.97;;;37.08;;
32874;SDS011;40468;42.128;24.750;2022-12-31T07:51:56;99.53;;;39.23;;
32874;SDS011;40468;42.128;24.750;2022-12-31T07:53:29;87.43;;;38.60;;
32874;SDS011;40468;42.128;24.750;2022-12-31T07:55:01;80.93;;;37.38;;
32874;SDS011;40468;42.128;24.750;2022-12-31T07:56:34;80.38;;;37.28;;
32874;SDS011;40468;42.128;24.750;2022-12-31T07:58:07;82.82;;;37.05;;
32874;SDS011;40468;42.128;24.750;2022-12-31T07:59:52;74.07;;;35.30;;
32874;SDS011;40468;42.128;24.750;2022-12-31T08:01:35;70.70;;;33.25;;
32874;SDS011;40468;42.128;24.750;2022-12-31T08:03:16;72.45;;;33.72;;
32874;SDS011;40468;42.128;24.750;2022-12-31T08:05:02;68.55;;;34.28;;
32874;SDS011;40468;42.128;24.750;2022-12-31T08:06:40;73.78;;;33.28;;
32874;SDS011;40468;42.128;24.750;2022-12-31T08:08:23;75.05;;;33.85;;
32874;SDS011;40468;42.128;24.750;2022-12-31T08:10:06;87.68;;;34.60;;
32874;SDS011;40468;42.128;24.750;2022-12-31T08:11:46;65.68;;;32.00;;
32874;SDS011;40468;42.128;24.750;2022-12-31T08:13:23;67.72;;;32.35;;
32874;SDS011;40468;42.128;24.750;2022-12-31T08:14:56;73.87;;;32.50;;
32874;SDS011;40468;42.128;24.750;2022-12-31T08:16:28;64.22;;;30.48;;
32874;SDS011;40468;42.128;24.750;2022-12-31T08:18:01;57.30;;;29.38;;
32874;SDS011;40468;42.128;24.750;2022-12-31T08:19:33;56.03;;;29.02;;
32874;SDS011;40468;42.128;24.750;2022-12-31T08:21:08;55.60;;;28.95;;
32874;SDS011;40468;42.128;24.750;2022-12-31T08:22:58;57.10;;;30.02;;
32874;SDS011;40468;42.128;24.750;2022-12-31T08:24:39;60.05;;;30.30;;
32874;SDS011;40468;42.128;24.750;2022-12-31T08:26:26;61.85;;;30.40;;
32874;SDS011;40468;42.128;24.750;2022-12-31T08:28:10;65.68;;;30.27;;
32874;SDS011;40468;42.128;24.750;2022-12-31T08:29:50;63.13;;;29.60;;
32874;SDS011;40468;42.128;24.750;2022-12-31T08:31:29;66.18;;;29.95;;
32874;SDS011;40468;42.128;24.750;2022-12-31T08:33:08;59.30;;;30.50;;
32874;SDS011;40468;42.128;24.750;2022-12-31T08:34:46;62.97;;;32.42;;
32874;SDS011;40468;42.128;24.750;2022-12-31T08:36:28;53.70;;;28.73;;
32874;SDS011;40468;42.128;24.750;2022-12-31T08:38:14;62.20;;;30.42;;
32874;SDS011;40468;42.128;24.750;2022-12-31T08:39:56;69.72;;;31.58;;
32874;SDS011;40468;42.128;24.750;2022-12-31T08:41:40;62.45;;;31.38;;
32874;SDS011;40468;42.128;24.750;2022-12-31T08:43:21;60.72;;;33.58;;
32874;SDS011;40468;42.128;24.750;2022-12-31T08:45:05;61.63;;;32.10;;
32874;SDS011;40468;42.128;24.750;2022-12-31T08:46:46;62.00;;;32.20;;
32874;SDS011;40468;42.128;24.750;2022-12-31T08:48:24;60.00;;;31.33;;
32874;SDS011;40468;42.128;24.750;2022-12-31T08:50:03;62.85;;;31.20;;
32874;SDS011;40468;42.128;24.750;2022-12-31T08:51:36;54.25;;;29.60;;
32874;SDS011;40468;42.128;24.750;2022-12-31T08:53:08;57.63;;;31.05;;
32874;SDS011;40468;42.128;24.750;2022-12-31T08:54:40;61.67;;;32.00;;
32874;SDS011;40468;42.128;24.750;2022-12-31T08:56:16;54.95;;;31.35;;
32874;SDS011;40468;42.128;24.750;2022-12-31T08:57:58;62.22;;;32.28;;
32874;SDS011;40468;42.128;24.750;2022-12-31T08:59:41;59.75;;;31.48;;
32874;SDS011;40468;42.128;24.750;2022-12-31T09:01:32;60.92;;;31.40;;
32874;SDS011;40468;42.128;24.750;2022-12-31T09:05:12;62.17;;;31.48;;
32874;SDS011;40468;42.128;24.750;2022-12-31T09:06:51;58.30;;;31.00;;
32874;SDS011;40468;42.128;24.750;2022-12-31T09:08:28;54.20;;;31.50;;
32874;SDS011;40468;42.128;24.750;2022-12-31T09:10:13;66.05;;;31.35;;
32874;SDS011;40468;42.128;24.750;2022-12-31T09:11:51;56.40;;;30.42;;
32874;SDS011;40468;42.128;24.750;2022-12-31T09:13:31;55.22;;;30.35;;
32874;SDS011;40468;42.128;24.750;2022-12-31T09:15:21;58.03;;;31.50;;
32874;SDS011;40468;42.128;24.750;2022-12-31T09:16:59;55.60;;;30.05;;
32874;SDS011;40468;42.128;24.750;2022-12-31T09:18:37;51.85;;;28.50;;
32874;SDS011;40468;42.128;24.750;2022-12-31T09:20:16;62.05;;;30.55;;
32874;SDS011;40468;42.128;24.750;2022-12-31T09:21:52;52.55;;;28.35;;